Webcam mot vest more information Webcam facing west


BeaufortBeaufort


Du finner stasjonens værinfo også på:

European Weather Network

WeatherCloud

Weather Underground

HAMweather, WeatherForYou, PWS Weather


Programvare vi bruker:

Weather Display

Leuven-Template 2.8

One.com

Værrapport fra de nærmeste flyplassene

   
ENEV - Evenes Lufthavn, (Harstad, Narvik), Norway
Oppdatert: 24-01-2019 06:50
Klart  
Klart  
   Vind vesterÃ¥len: ØSØ 6.2 m/s
Vind vesterålen: ØSØ 6.2 m/s
Temperatur: -6°C
Wind Chill: -13°C
Duggpunkt: -16°C
Luftfuktighet: 45%
Lufttrykk: 1016 hPa
Sikt: Mer enn 10 km
Detaljer skyer: Klart
ENEV 240550Z 12012KT 080V150 CAVOK M06/M16 Q1016 RMK WIND 1400FT 10021KT
ENSK - Stokmarknes Lufthavn, Vesterålen,Norway
Oppdatert: 24-01-2019 07:20
Noen skyer  
Noen skyer  
   Vind vesterÃ¥len: ØSØ 7.7 m/s
Vind vesterålen: ØSØ 7.7 m/s
Temperatur: -4°C
Wind Chill: -12°C
Duggpunkt: -14°C
Luftfuktighet: 46%
Lufttrykk: 1015 hPa
Skyer: Noen skyer
Sikt: Mer enn 10 km
Detaljer skyer: Noen skyer 762 m
ENSK 240620Z 11015KT 9999 FEW025 M04/M14 Q1015
ENAN - Andenes Lufthavn, Vesterålen, Norway
Oppdatert: 24-01-2019 07:20
Klart  
Klart  
   Vind vesterÃ¥len: SØ 10.8 m/s
Vind vesterålen: SØ 10.8 m/s
Temperatur: -4°C
Wind Chill: -13°C
Duggpunkt: -13°C
Luftfuktighet: 50%
Lufttrykk: 1016 hPa
Sikt: Mer enn 10 km
Detaljer skyer: Klart
ENAN 240620Z 13021KT CAVOK M04/M13 Q1016
ENLK - Leknes Lufthavn, Lofoten, Norway
Oppdatert: 24-01-2019 06:50
Partly Cloudy  
Partly Cloudy  
   Vind vesterÃ¥len: ØSØ 5.1 m/s
Vind vesterålen: ØSØ 5.1 m/s
Temperatur: -4°C
Wind Chill: -10°C
Duggpunkt: -13°C
Luftfuktighet: 50%
Lufttrykk: 1013 hPa
Skyer: Partly Cloudy
Sikt: Mer enn 10 km
Detaljer skyer: Partly Cloudy 1219.2 m
ENLK 240550Z 12010KT 9999 SCT040 M04/M13 Q1013
ENSH - Svolvær, Helle, Lofoten, Norway
Oppdatert: 24-01-2019 06:50
Klart  
Klart  
   Vind vesterÃ¥len: Øst 11.3 m/s
Vind vesterålen: Øst 11.3 m/s
Temperatur: -4°C
Wind Chill: -13°C
Duggpunkt: -12°C
Luftfuktighet: 54%
Lufttrykk: 1013 hPa
Sikt: Mer enn 10 km
Detaljer skyer: Klart
ENSH 240550Z 08022KT CAVOK M04/M12 Q1013 RMK WIND 150FT 06023KT
ENBO - Bodø Lufthavn, Norway
Oppdatert: 24-01-2019 07:20
Klart  
Klart  
   Vind vesterÃ¥len: Øst 8.2 m/s
Vind vesterålen: Øst 8.2 m/s
Temperatur: -6°C
Wind Chill: -14°C
Duggpunkt: -12°C
Luftfuktighet: 63%
Lufttrykk: 1012 hPa
Sikt: Mer enn 10 km
Detaljer skyer: Klart
ENBO 240620Z 08016KT CAVOK M06/M12 Q1012 TEMPO 10020G30KT

Script utviklet av  Saratoga-weather.org Tilpasset for tamplaten av  Weerstation Leuven